Time;durP1;ratioP1;P1;durP2;ratioP2;P2;SDS_P1;SDS_P2;PMS_P1;PMS_P2;Temp;Humidity;BMP_temperature;BMP_pressure;BME280_temperature;BME280_humidity;BME280_pressure;Samples;Min_cycle;Max_cycle;Signal;HPM_P1;HPM_P2
2022/06/09 00:01:50;;;;;;;11.55;8.90;;;17.80;99.90;;;19.02;74.10;98676.56;5059106;27;119575;-71
2022/06/09 00:04:27;;;;;;;14.65;8.48;;;17.70;99.90;;;18.99;73.63;98677.34;5060673;27;128968;-71
2022/06/09 00:07:00;;;;;;;14.13;9.02;;;17.80;99.90;;;18.99;73.12;98671.84;5058708;27;129986;-72
2022/06/09 00:09:34;;;;;;;11.95;9.10;;;17.70;99.90;;;19.01;73.29;98674.22;5059077;27;120322;-70
2022/06/09 00:12:03;;;;;;;14.07;9.38;;;17.70;99.90;;;18.99;73.77;98671.84;5058792;27;119991;-72
2022/06/09 00:14:32;;;;;;;14.68;9.05;;;17.80;99.90;;;18.97;73.81;98679.72;5062355;27;131596;-69
2022/06/09 00:17:01;;;;;;;11.80;8.88;;;17.80;99.90;;;18.92;74.09;98674.59;5062116;27;129442;-70
2022/06/09 00:19:31;;;;;;;12.73;9.23;;;17.80;99.90;;;18.94;73.89;98677.75;5062391;27;119661;-69
2022/06/09 00:22:01;;;;;;;14.98;8.80;;;17.70;99.90;;;18.90;73.96;98685.22;5062380;27;119880;-69
2022/06/09 00:24:30;;;;;;;13.77;9.23;;;17.70;99.90;;;18.90;73.92;98684.41;5061893;27;129726;-71
2022/06/09 00:26:58;;;;;;;12.60;9.13;;;17.70;99.90;;;18.89;73.76;98680.88;5061958;27;129610;-74
2022/06/09 00:29:27;;;;;;;12.40;9.38;;;17.70;99.90;;;18.89;73.97;98677.34;5044334;27;119015;-71
2022/06/09 00:31:56;;;;;;;12.75;9.80;;;17.70;99.90;;;18.85;74.22;98682.81;5062541;27;118716;-69
2022/06/09 00:34:24;;;;;;;11.57;8.45;;;17.60;99.90;;;18.81;74.83;98687.50;5061856;27;130878;-70
2022/06/09 00:36:54;;;;;;;14.90;10.57;;;17.60;99.90;;;18.80;74.72;98685.91;5059063;27;128741;-71
2022/06/09 00:39:22;;;;;;;13.32;9.27;;;17.50;99.90;;;18.76;74.70;98685.09;5062107;27;119999;-71
2022/06/09 00:41:51;;;;;;;13.45;8.93;;;17.50;99.90;;;18.73;74.91;98685.88;5062085;27;119687;-70
2022/06/09 00:44:23;;;;;;;11.23;9.73;;;17.50;99.90;;;18.71;74.79;98682.72;5046541;27;129496;-70
2022/06/09 00:46:56;;;;;;;14.20;9.05;;;17.40;99.90;;;18.68;75.35;98685.09;5043294;27;129254;-70
2022/06/09 00:49:30;;;;;;;13.73;9.18;;;17.40;99.90;;;18.59;75.57;98687.41;5043218;27;120133;-70
2022/06/09 00:52:03;;;;;;;11.85;9.30;;;17.40;99.90;;;18.55;76.40;98692.06;5046156;27;119318;-70
2022/06/09 00:54:38;;;;;;;16.35;9.85;;;17.40;99.90;;;18.49;76.75;98683.41;5043636;27;131036;-73
2022/06/09 00:57:13;;;;;;;12.35;9.88;;;17.30;99.90;;;18.41;77.33;98675.53;5061523;27;129726;-72
2022/06/09 00:59:46;;;;;;;12.50;10.10;;;17.20;99.90;;;18.26;78.20;98680.94;5047064;27;119659;-71
2022/06/09 01:02:18;;;;;;;13.90;10.18;;;17.00;99.90;;;18.12;79.33;98675.34;5045441;27;119238;-71
2022/06/09 01:04:48;;;;;;;15.13;9.77;;;16.90;1.00;;;18.07;79.24;98683.94;5043097;27;129743;-71
2022/06/09 01:07:24;;;;;;;13.80;10.60;;;16.90;1.00;;;18.05;79.94;98673.34;5061161;27;129787;-71
2022/06/09 01:09:52;;;;;;;;;;;16.80;1.00;;;17.97;79.71;98674.47;5061966;27;119790;-71
2022/06/09 01:12:29;;;;;;;17.42;10.57;;;16.80;1.00;;;18.00;79.62;98670.97;5061774;27;119778;-71
2022/06/09 01:14:59;;;;;;;;;;;16.80;1.00;;;17.96;79.66;98661.91;5046413;27;129866;-72
2022/06/09 01:17:39;;;;;;;15.70;10.57;;;16.80;1.00;;;17.93;79.64;98666.19;5061287;27;130000;-72
2022/06/09 01:20:23;;;;;;;15.93;10.13;;;16.80;1.00;;;17.89;79.71;98667.34;5046719;27;118570;-70
2022/06/09 01:23:38;;;;;;;14.80;10.30;;;16.80;1.00;;;17.88;80.03;98666.53;5046054;27;117962;-70
2022/06/09 01:26:39;;;;;;;16.13;11.13;;;16.90;1.00;;;17.88;79.84;98672.03;5060901;27;130187;-74
2022/06/09 01:29:36;;;;;;;17.75;11.38;;;16.80;1.00;;;17.86;80.27;98668.09;5027751;27;128200;-71
2022/06/09 01:32:12;;;;;;;14.45;10.68;;;16.80;1.00;;;17.84;80.57;98668.47;5061331;27;120467;-70
2022/06/09 01:34:52;;;;;;;15.35;11.05;;;16.70;1.00;;;17.78;81.01;98672.72;5061260;27;120630;-70
2022/06/09 01:37:25;;;;;;;14.02;10.95;;;16.70;1.00;;;17.76;81.28;98670.38;5045852;27;129662;-71
2022/06/09 01:39:56;;;;;;;15.43;10.73;;;16.70;1.00;;;17.75;81.35;98670.75;5060643;27;129434;-72
2022/06/09 01:42:31;;;;;;;18.65;11.43;;;16.70;1.00;;;17.81;81.10;98666.47;5061457;27;119772;-72
2022/06/09 01:45:04;;;;;;;14.50;11.75;;;16.70;1.00;;;17.86;81.10;98668.09;5061035;27;119689;-71
2022/06/09 01:47:46;;;;;;;15.18;10.90;;;16.70;1.00;;;17.90;80.80;98672.47;5042884;27;129966;-69
2022/06/09 01:50:24;;;;;;;14.85;11.20;;;16.70;1.00;;;17.95;80.51;98685.81;5060661;27;130111;-71
2022/06/09 01:52:54;;;;;;;16.45;11.63;;;16.70;1.00;;;18.02;79.96;98676.06;5042464;27;119617;-72
2022/06/09 01:55:26;;;;;;;18.55;11.50;;;16.80;1.00;;;18.05;80.31;98676.09;5045060;27;119076;-71
2022/06/09 01:57:59;;;;;;;13.88;10.95;;;16.80;1.00;;;18.10;79.74;98672.97;5060472;27;130400;-71
2022/06/09 02:00:29;;;;;;;15.55;11.32;;;16.80;1.00;;;18.08;79.92;98675.31;5028549;27;128746;-70
2022/06/09 02:03:05;;;;;;;15.15;11.85;;;16.90;1.00;;;18.08;79.98;98680.81;5056234;27;119745;-70
2022/06/09 02:05:40;;;;;;;14.90;10.90;;;16.90;1.00;;;18.20;79.41;98676.97;5042400;27;120094;-70
2022/06/09 02:08:14;;;;;;;16.15;11.20;;;17.00;1.00;;;18.27;79.15;98677.00;5042566;27;130817;-72
2022/06/09 02:10:46;;;;;;;13.65;10.45;;;17.10;1.00;;;18.30;79.00;98681.72;5041263;27;130001;-70
2022/06/09 02:13:21;;;;;;;15.25;10.93;;;17.10;1.00;;;18.37;79.01;98680.19;5043691;27;119040;-70
2022/06/09 02:15:54;;;;;;;13.73;10.45;;;17.20;1.00;;;18.39;79.15;98673.16;5025277;27;119112;-70
2022/06/09 02:18:27;;;;;;;15.90;11.02;;;17.20;1.00;;;18.47;79.00;98676.72;5024339;27;129673;-71
2022/06/09 02:21:08;;;;;;;15.90;11.63;;;17.20;1.00;;;18.60;78.05;98672.47;5038652;27;129397;-70
2022/06/09 02:23:37;;;;;;;16.63;10.75;;;17.30;1.00;;;18.71;77.29;98679.97;5040092;27;119664;-71
2022/06/09 02:26:06;;;;;;;17.92;11.52;;;17.40;1.00;;;18.81;77.63;98671.00;5040093;27;119150;-71
2022/06/09 02:28:36;;;;;;;15.23;10.35;;;17.50;1.00;;;18.92;77.34;98680.09;5024689;27;129865;-71
2022/06/09 02:31:05;;;;;;;14.00;10.13;;;17.50;1.00;;;19.11;76.29;98680.94;5024955;27;128619;-70
2022/06/09 02:33:34;;;;;;;15.63;10.60;;;17.70;99.90;;;19.22;75.89;98688.03;5021875;27;119903;-71
2022/06/09 02:36:03;;;;;;;12.23;10.63;;;17.80;99.90;;;19.38;76.03;98682.19;5024362;27;118469;-71
2022/06/09 02:38:31;;;;;;;14.77;11.13;;;17.90;99.90;;;19.50;74.91;98688.47;5042009;27;128930;-71
2022/06/09 02:41:00;;;;;;;16.08;10.85;;;17.90;99.90;;;19.64;74.42;98682.22;5039509;27;130439;-71
2022/06/09 02:43:29;;;;;;;14.15;10.60;;;18.10;99.90;;;19.77;74.69;98685.38;5039683;27;119980;-70
2022/06/09 02:45:57;;;;;;;13.98;10.23;;;18.20;99.90;;;19.95;74.28;98683.41;5038634;27;119971;-70
2022/06/09 02:48:27;;;;;;;20.73;11.00;;;18.30;99.90;;;20.03;74.35;98687.72;5039111;27;130439;-70
2022/06/09 02:50:56;;;;;;;16.23;9.95;;;18.40;99.90;;;20.14;72.87;98686.94;5039687;27;130099;-69
2022/06/09 02:53:25;;;;;;;12.80;9.63;;;18.50;99.90;;;20.41;72.27;98690.81;5024925;27;118595;-70
2022/06/09 02:55:54;;;;;;;15.93;9.07;;;18.70;99.90;;;20.71;70.85;98691.53;5039805;27;120389;-72
2022/06/09 02:58:22;;;;;;;13.18;9.77;;;18.90;99.90;;;20.84;69.87;98681.66;5039127;27;129982;-70
2022/06/09 03:00:51;;;;;;;14.10;9.70;;;19.00;99.90;;;21.19;67.86;98688.97;5039365;27;129784;-69
2022/06/09 03:03:19;;;;;;;13.25;8.85;;;19.20;99.90;;;22.08;65.73;98689.50;5024786;27;117914;-72
2022/06/09 03:05:48;;;;;;;13.10;8.75;;;19.90;99.90;;;22.50;63.01;98684.00;5039334;27;118907;-70
2022/06/09 03:08:18;;;;;;;13.50;8.07;;;20.10;99.90;;;23.23;61.27;98690.19;5039341;27;129951;-70
2022/06/09 03:10:47;;;;;;;14.77;8.00;;;20.50;99.90;;;24.38;57.72;98688.34;5037785;27;129510;-70
2022/06/09 03:13:15;;;;;;;11.85;7.30;;;21.20;99.90;;;25.59;53.47;98691.06;5007539;27;118501;-71
2022/06/09 03:15:47;;;;;;;10.15;6.88;;;21.80;99.90;;;26.59;50.62;98689.72;5039291;27;119468;-72
2022/06/09 03:18:17;;;;;;;9.93;6.80;;;22.30;99.90;;;27.70;48.06;98682.84;5020602;27;129786;-70
2022/06/09 03:20:46;;;;;;;9.68;6.88;;;22.90;99.90;;;28.57;45.84;98687.06;5038869;27;129315;-72
2022/06/09 03:23:15;;;;;;;12.05;6.63;;;23.30;99.90;;;28.82;44.56;98685.41;5024107;27;119054;-70
2022/06/09 03:25:45;;;;;;;10.40;6.90;;;23.50;99.90;;;28.55;44.59;98686.75;5007710;27;118755;-73
2022/06/09 03:28:13;;;;;;;11.20;7.20;;;23.30;99.90;;;28.06;45.18;98685.25;5039246;27;129971;-71
2022/06/09 03:30:42;;;;;;;13.02;8.18;;;22.60;99.90;;;27.27;46.66;98684.97;5038708;27;129340;-74
2022/06/09 03:33:10;;;;;;;12.77;7.22;;;22.00;99.90;;;26.60;48.61;98691.25;5039243;27;119419;-71
2022/06/09 03:35:39;;;;;;;11.55;6.88;;;21.80;99.90;;;26.08;50.04;98690.28;5037710;27;119244;-70
2022/06/09 03:38:08;;;;;;;13.30;7.57;;;21.60;99.90;;;25.77;50.80;98691.41;5023795;27;129710;-70
2022/06/09 03:40:36;;;;;;;12.73;8.07;;;21.50;99.90;;;25.39;52.29;98702.22;5023766;27;129112;-71
2022/06/09 03:43:07;;;;;;;12.00;8.05;;;21.30;99.90;;;25.22;51.88;98695.81;5024389;27;118868;-71
2022/06/09 03:45:36;;;;;;;10.48;7.88;;;21.40;99.90;;;24.93;53.71;98699.19;5039105;27;119337;-71
2022/06/09 03:48:06;;;;;;;10.55;7.80;;;21.30;99.90;;;24.81;54.31;98692.31;5023300;27;129050;-68
2022/06/09 03:50:35;;;;;;;10.27;7.40;;;21.30;99.90;;;24.74;54.94;98693.25;5023564;27;129732;-69
2022/06/09 03:53:04;;;;;;;11.00;7.70;;;21.30;99.90;;;24.64;53.84;98699.78;5039244;27;118815;-70
2022/06/09 03:55:32;;;;;;;12.70;7.60;;;21.30;99.90;;;24.58;54.14;98693.19;5038730;27;119330;-70
2022/06/09 03:58:01;;;;;;;9.85;7.75;;;21.40;99.90;;;24.50;54.54;98700.06;5023528;27;128735;-70
2022/06/09 04:00:34;;;;;;;12.13;7.75;;;21.30;99.90;;;24.38;55.04;98695.91;5037384;27;129509;-68
2022/06/09 04:03:03;;;;;;;10.48;7.25;;;21.30;99.90;;;24.34;54.39;98693.22;5039611;27;119415;-69
2022/06/09 04:05:33;;;;;;;9.88;6.85;;;21.30;99.90;;;24.44;54.23;98698.97;5038602;27;119648;-73
2022/06/09 04:08:03;;;;;;;14.95;7.88;;;21.40;99.90;;;24.44;54.60;98698.97;5038432;27;130947;-70
2022/06/09 04:10:35;;;;;;;10.73;7.38;;;21.50;99.90;;;24.48;54.82;98691.34;5038077;27;129302;-69
2022/06/09 04:13:04;;;;;;;11.05;7.60;;;21.50;99.90;;;24.56;54.14;98698.34;5038622;27;119685;-70
2022/06/09 04:15:34;;;;;;;9.00;7.13;;;21.60;99.90;;;24.61;53.70;98695.09;5020454;27;120112;-69
2022/06/09 04:18:04;;;;;;;9.48;7.43;;;21.70;99.90;;;24.54;54.28;98695.19;5038539;27;131133;-73
2022/06/09 04:20:33;;;;;;;11.68;7.57;;;21.60;99.90;;;24.65;54.14;98695.03;5038376;27;130226;-70
2022/06/09 04:23:01;;;;;;;10.98;7.28;;;21.80;99.90;;;24.77;52.91;98697.94;5038347;27;119669;-73
2022/06/09 04:25:30;;;;;;;11.07;7.47;;;21.90;99.90;;;24.83;53.85;98697.44;5037396;27;119978;-71
2022/06/09 04:27:59;;;;;;;12.07;7.30;;;22.00;99.90;;;24.94;53.77;98703.56;5022954;27;129254;-71
2022/06/09 04:30:28;;;;;;;9.93;7.05;;;22.10;99.90;;;25.11;52.71;98694.06;5038038;27;129663;-71
2022/06/09 04:32:58;;;;;;;16.45;7.72;;;22.30;99.90;;;25.19;52.12;98696.69;5038508;27;119877;-70
2022/06/09 04:35:28;;;;;;;12.00;7.53;;;22.30;99.90;;;25.36;51.48;98697.53;5023334;27;118210;-71
2022/06/09 04:38:03;;;;;;;13.85;8.35;;;22.40;99.90;;;25.44;51.26;98691.38;5038006;27;129938;-69
2022/06/09 04:40:35;;;;;;;11.05;6.82;;;22.40;99.90;;;25.51;51.00;98686.84;5038027;27;129465;-72
2022/06/09 04:43:05;;;;;;;10.27;6.70;;;22.50;99.90;;;25.70;49.60;98688.78;5023785;27;118110;-69
2022/06/09 04:45:35;;;;;;;10.93;6.93;;;22.60;99.90;;;25.80;49.36;98693.31;5022822;27;118338;-71
2022/06/09 04:48:06;;;;;;;11.55;6.30;;;22.70;99.90;;;25.84;49.69;98690.44;5037847;27;131547;-72
2022/06/09 04:50:35;;;;;;;10.23;6.78;;;22.80;99.90;;;25.76;49.39;98687.06;5036326;27;129661;-72
2022/06/09 04:53:05;;;;;;;13.32;6.97;;;22.80;99.90;;;25.96;49.53;98689.75;5022989;27;118406;-70
2022/06/09 04:55:34;;;;;;;12.30;6.20;;;23.00;99.90;;;26.24;49.18;98692.22;5036943;27;119505;-72
2022/06/09 04:58:03;;;;;;;10.10;5.90;;;23.20;99.90;;;26.37;47.79;98681.97;5037851;27;129675;-72
2022/06/09 05:00:32;;;;;;;10.15;5.68;;;23.10;99.90;;;26.33;47.17;98684.03;5041186;27;129694;-68
2022/06/09 05:03:01;;;;;;;9.00;5.82;;;23.20;99.90;;;26.28;47.96;98687.38;5043854;27;119521;-71
2022/06/09 05:05:33;;;;;;;7.63;5.53;;;23.00;99.90;;;26.29;46.78;98694.50;5043818;27;119549;-72
2022/06/09 05:08:03;;;;;;;9.93;5.90;;;22.90;99.90;;;26.47;46.10;98683.66;5029216;27;129628;-71
2022/06/09 05:10:32;;;;;;;8.80;6.05;;;23.30;99.90;;;26.66;45.80;98683.97;5024940;27;131554;-70
2022/06/09 05:13:04;;;;;;;9.50;6.18;;;23.30;99.90;;;26.79;46.03;98687.56;5043460;27;119752;-70
2022/06/09 05:15:36;;;;;;;7.35;5.47;;;23.50;99.90;;;26.81;46.59;98690.69;5040940;27;120163;-72
2022/06/09 05:18:06;;;;;;;12.63;5.57;;;23.60;99.90;;;27.12;45.44;98687.41;5041070;27;129948;-71
2022/06/09 05:20:36;;;;;;;8.73;5.05;;;23.70;99.90;;;27.18;45.44;98693.97;5041008;27;129816;-70
2022/06/09 05:23:05;;;;;;;9.65;5.05;;;23.80;99.90;;;27.58;44.71;98696.38;5041106;27;119279;-71
2022/06/09 05:25:33;;;;;;;10.32;5.28;;;24.10;99.90;;;27.79;44.23;98699.69;5026128;27;118535;-73
2022/06/09 05:28:02;;;;;;;9.73;5.55;;;24.30;99.90;;;27.66;43.97;98690.53;5040913;27;131459;-70
2022/06/09 05:30:31;;;;;;;8.70;5.22;;;24.40;99.90;;;27.46;45.14;98686.00;5040538;27;129463;-72
2022/06/09 05:33:01;;;;;;;7.05;5.10;;;24.00;99.90;;;27.53;42.92;98693.34;5023741;27;118754;-71
2022/06/09 05:35:30;;;;;;;8.40;4.80;;;23.80;99.90;;;27.37;44.60;98694.25;5026407;27;118041;-74
2022/06/09 05:46:18;;;;;;;9.13;5.45;;;23.70;99.90;;;27.22;45.55;98708.59;5030281;27;118939;-73
2022/06/09 05:48:47;;;;;;;9.45;4.85;;;24.10;99.90;;;27.29;44.78;98706.81;5043627;27;130634;-71
2022/06/09 05:51:18;;;;;;;8.23;4.82;;;24.00;99.90;;;27.47;45.48;98707.03;5041508;27;129626;-73
2022/06/09 05:53:48;;;;;;;7.82;5.22;;;24.20;99.90;;;27.57;44.42;98705.94;5040660;27;120088;-72
2022/06/09 05:56:17;;;;;;;9.48;5.15;;;24.20;99.90;;;27.41;45.70;98708.81;5040631;27;119680;-70
2022/06/09 05:58:47;;;;;;;8.73;5.03;;;24.10;99.90;;;27.41;44.84;98708.81;5022177;27;129875;-72
2022/06/09 06:01:16;;;;;;;8.27;4.50;;;24.20;99.90;;;27.64;43.50;98720.88;5040225;27;130376;-72
2022/06/09 06:03:45;;;;;;;6.75;4.57;;;24.20;99.90;;;27.97;44.51;98716.63;5025253;27;118426;-70
2022/06/09 06:09:06;;;;;;;8.75;4.68;;;24.70;99.90;;;28.28;43.44;98718.78;5039807;27;129847;-71
2022/06/09 06:11:36;;;;;;;12.75;4.80;;;24.70;99.90;;;28.29;43.14;98725.13;5039955;27;129434;-71
2022/06/09 06:14:08;;;;;;;8.20;4.53;;;24.60;99.90;;;28.30;43.16;98727.47;5040422;27;119779;-72
2022/06/09 06:16:37;;;;;;;9.30;4.68;;;24.60;99.90;;;28.10;43.01;98729.75;5025551;27;118255;-72
2022/06/09 06:19:08;;;;;;;9.18;4.72;;;24.70;99.90;;;28.03;43.17;98718.84;5040040;27;130710;-71
2022/06/09 06:21:38;;;;;;;10.10;3.92;;;24.40;99.90;;;27.94;42.98;98727.84;5039786;27;129788;-74
2022/06/09 06:24:09;;;;;;;6.85;4.65;;;24.40;99.90;;;28.00;43.31;98730.88;5040673;27;118732;-74
2022/06/09 06:26:37;;;;;;;8.75;4.55;;;24.50;99.90;;;28.08;43.05;98727.44;5040739;27;119282;-72
2022/06/09 06:29:08;;;;;;;12.35;5.18;;;24.70;99.90;;;28.06;43.92;98727.06;5039966;27;130190;-72
2022/06/09 06:31:38;;;;;;;9.20;4.30;;;24.60;99.90;;;28.07;43.80;98727.88;5037238;27;131380;-74
2022/06/09 06:34:06;;;;;;;7.78;4.40;;;24.70;99.90;;;28.35;43.27;98728.13;5025392;27;118804;-71
2022/06/09 06:36:35;;;;;;;11.05;4.85;;;24.90;99.90;;;28.46;42.92;98729.31;5040177;27;119572;-73
2022/06/09 06:39:04;;;;;;;8.60;4.68;;;24.90;99.90;;;28.55;42.77;98734.19;5039838;27;130010;-70
2022/06/09 06:41:34;;;;;;;12.80;4.75;;;25.10;99.90;;;28.57;42.46;98728.94;5039602;27;129971;-70
2022/06/09 06:44:02;;;;;;;8.40;4.28;;;24.90;99.90;;;28.53;42.16;98733.84;5039790;27;120151;-70
2022/06/09 06:46:31;;;;;;;9.43;4.72;;;24.90;99.90;;;28.49;42.68;98744.38;5039905;27;119457;-73
2022/06/09 06:48:59;;;;;;;11.68;4.82;;;24.90;99.90;;;28.57;43.48;98731.72;5039978;27;130166;-70
2022/06/09 06:51:28;;;;;;;13.38;4.75;;;25.10;99.90;;;28.67;43.38;98738.97;5039406;27;130063;-72
2022/06/09 06:53:56;;;;;;;10.13;4.75;;;24.90;99.90;;;28.79;43.35;98736.56;5040199;27;119626;-70
2022/06/09 06:56:24;;;;;;;14.18;5.25;;;25.00;99.90;;;28.73;43.53;98735.59;5038850;27;119892;-73
2022/06/09 06:58:54;;;;;;;9.95;4.60;;;25.10;99.90;;;28.76;43.45;98735.44;5039876;27;130408;-73
2022/06/09 07:01:23;;;;;;;12.30;5.13;;;25.10;99.90;;;28.68;43.72;98739.75;5039554;27;130308;-72
2022/06/09 07:03:51;;;;;;;7.25;4.88;;;25.20;99.90;;;28.83;43.12;98740.00;5040980;27;120790;-70
2022/06/09 07:06:20;;;;;;;9.60;4.45;;;25.30;99.90;;;28.81;43.67;98734.88;5039428;27;119692;-72
2022/06/09 07:08:49;;;;;;;10.18;5.40;;;25.00;99.90;;;28.91;43.29;98741.31;5039293;27;129984;-72
2022/06/09 07:11:17;;;;;;;10.27;5.30;;;24.90;99.90;;;29.08;44.02;98738.28;5039304;27;129382;-71
2022/06/09 07:13:46;;;;;;;11.02;5.28;;;25.30;99.90;;;29.19;44.06;98739.47;5039917;27;120593;-71
2022/06/09 07:16:16;;;;;;;10.43;5.50;;;25.40;99.90;;;29.30;43.58;98738.31;5039422;27;118915;-71
2022/06/09 07:18:45;;;;;;;11.60;4.65;;;25.60;99.90;;;29.15;43.45;98747.19;5039329;27;129907;-71
2022/06/09 07:21:14;;;;;;;10.27;4.65;;;25.30;99.90;;;28.90;43.53;98739.72;5037597;27;130394;-71
2022/06/09 07:23:45;;;;;;;7.80;4.43;;;25.20;99.90;;;28.65;44.52;98744.22;5021393;27;120428;-71
2022/06/09 07:26:14;;;;;;;7.90;4.85;;;25.10;99.90;;;28.78;44.77;98740.59;5038207;27;119522;-73
2022/06/09 07:28:42;;;;;;;8.82;4.75;;;25.30;99.90;;;29.30;44.91;98747.44;5024375;27;128744;-74
2022/06/09 07:31:11;;;;;;;9.63;4.07;;;25.70;99.90;;;29.46;43.21;98748.47;5038826;27;130440;-75
2022/06/09 07:33:42;;;;;;;9.38;4.63;;;25.60;99.90;;;29.35;43.70;98749.66;5039874;27;119854;-71
2022/06/09 07:36:19;;;;;;;9.52;4.45;;;25.40;99.90;;;29.38;43.90;98745.94;5021276;27;119123;-73
2022/06/09 07:38:48;;;;;;;13.52;5.00;;;25.70;99.90;;;29.51;43.55;98748.63;5039208;27;130405;-72
2022/06/09 07:41:19;;;;;;;8.93;4.70;;;25.80;99.90;;;29.64;44.21;98745.75;5038985;27;129866;-71
2022/06/09 07:43:48;;;;;;;12.65;4.78;;;26.00;99.90;;;29.90;43.37;98754.72;5024520;27;119972;-71
2022/06/09 07:46:18;;;;;;;8.90;4.40;;;26.40;99.90;;;29.98;42.48;98741.22;5037663;27;120489;-73
2022/06/09 07:48:49;;;;;;;10.98;4.53;;;26.30;99.90;;;29.94;42.75;98748.97;5039070;27;130052;-71
2022/06/09 07:51:20;;;;;;;11.55;4.53;;;26.40;99.90;;;30.04;43.02;98744.94;5038964;27;129451;-73
2022/06/09 07:53:49;;;;;;;8.07;4.10;;;26.40;99.90;;;30.10;41.71;98745.13;5007184;27;119249;-70
2022/06/09 07:56:17;;;;;;;9.13;4.28;;;26.40;99.90;;;29.99;41.92;98742.75;5038988;27;119292;-72
2022/06/09 07:58:46;;;;;;;8.50;3.97;;;26.60;99.90;;;30.38;42.05;98757.13;5038390;27;130060;-73
2022/06/09 08:01:17;;;;;;;9.13;4.25;;;26.70;99.90;;;30.59;41.08;98740.66;5038243;27;129412;-73
2022/06/09 08:03:47;;;;;;;7.45;4.25;;;26.90;99.90;;;31.29;40.72;98748.34;5040537;27;119026;-72
2022/06/09 08:06:16;;;;;;;10.77;4.07;;;27.40;99.90;;;31.67;40.73;98747.00;5038638;27;118814;-71
2022/06/09 08:08:45;;;;;;;6.65;3.58;;;28.00;99.90;;;31.88;39.52;98747.97;5023287;27;129291;-71
2022/06/09 08:11:14;;;;;;;8.98;3.22;;;28.20;99.90;;;31.81;37.63;98749.09;5037139;27;130040;-73
2022/06/09 08:13:42;;;;;;;6.93;3.30;;;28.00;99.90;;;31.68;39.10;98756.97;5039002;27;119634;-71
2022/06/09 08:16:12;;;;;;;8.45;3.58;;;28.10;99.90;;;31.43;38.19;98753.31;5038886;27;120436;-72
2022/06/09 08:18:40;;;;;;;6.47;3.42;;;27.70;99.90;;;31.26;39.39;98752.91;5038887;27;130176;-73
2022/06/09 08:21:10;;;;;;;7.88;3.70;;;27.60;99.90;;;31.04;38.28;98755.91;5038377;27;130108;-72
2022/06/09 08:23:39;;;;;;;8.60;3.13;;;27.40;99.90;;;30.59;38.96;98749.06;5038660;27;119310;-72
2022/06/09 08:26:08;;;;;;;11.55;3.95;;;27.20;99.90;;;30.48;39.55;98760.75;5023441;27;118641;-74
2022/06/09 08:28:36;;;;;;;5.25;2.97;;;27.10;99.90;;;30.42;39.93;98754.22;5023405;27;129145;-74
2022/06/09 08:31:08;;;;;;;10.15;4.45;;;27.00;99.90;;;30.53;40.70;98756.56;5038140;27;129837;-71
2022/06/09 08:33:36;;;;;;;6.18;3.03;;;27.00;99.90;;;30.83;39.04;98761.19;5039640;27;119575;-74
2022/06/09 08:36:07;;;;;;;7.25;3.20;;;27.30;99.90;;;31.04;39.18;98755.91;5022951;27;119933;-72
2022/06/09 08:38:37;;;;;;;9.35;3.28;;;27.40;99.90;;;31.13;39.30;98757.91;5045478;27;130995;-73
2022/06/09 08:41:21;;;;;;;5.85;2.83;;;27.60;99.90;;;30.98;38.15;98757.78;5043607;27;129158;-73
2022/06/09 08:44:05;;;;;;;5.93;2.72;;;27.70;99.90;;;31.27;36.13;98762.06;5026846;27;119363;-72
2022/06/09 08:46:48;;;;;;;6.65;2.90;;;28.10;99.90;;;30.97;35.49;98759.03;5026775;27;118380;-74
2022/06/09 08:49:35;;;;;;;8.80;3.25;;;27.80;99.90;;;31.24;35.92;98751.81;5041295;27;130607;-73
2022/06/09 08:52:12;;;;;;;6.90;2.75;;;27.90;99.90;;;31.23;35.58;98755.84;5041506;27;129495;-71
2022/06/09 08:54:43;;;;;;;9.45;2.80;;;27.90;99.90;;;30.97;34.78;98764.63;5042124;27;118941;-73
2022/06/09 08:57:17;;;;;;;13.80;3.00;;;27.80;99.90;;;30.80;35.80;98764.16;5041508;27;118649;-74
2022/06/09 08:59:56;;;;;;;8.20;2.83;;;27.90;99.90;;;30.77;35.65;98765.84;5041494;27;130779;-73
2022/06/09 09:02:36;;;;;;;7.95;3.10;;;27.70;99.90;;;30.86;36.40;98761.50;5040247;27;129402;-71
2022/06/09 09:05:19;;;;;;;8.10;2.92;;;27.80;99.90;;;31.02;35.78;98764.00;5059338;27;119843;-73
2022/06/09 09:07:52;;;;;;;7.40;3.25;;;28.00;99.90;;;30.99;36.67;98764.94;5062013;27;119741;-71
2022/06/09 09:10:31;;;;;;;8.10;2.65;;;27.80;99.90;;;30.87;35.31;98768.66;5061286;27;129946;-74
2022/06/09 09:13:16;;;;;;;5.93;2.75;;;27.50;99.90;;;30.65;35.86;98759.19;5064307;27;130474;-72
2022/06/09 09:15:52;;;;;;;5.03;2.47;;;27.50;99.90;;;30.41;34.82;98773.00;5046947;27;119243;-71
2022/06/09 09:18:35;;;;;;;4.45;2.83;;;27.40;99.90;;;30.52;35.84;98754.97;5060592;27;119233;-75
2022/06/09 09:21:29;;;;;;;4.60;2.40;;;27.50;99.90;;;30.72;36.01;98760.13;5046832;27;129054;-77
2022/06/09 09:24:10;;;;;;;5.05;2.78;;;27.70;99.90;;;30.68;35.92;98757.47;5046378;27;128167;-73
2022/06/09 09:27:01;;;;;;;5.55;2.65;;;27.80;99.90;;;30.65;36.02;98758.38;5061844;27;119931;-72
2022/06/09 09:29:36;;;;;;;6.38;2.88;;;27.50;99.90;;;30.94;35.88;98763.50;5060653;27;120395;-75
2022/06/09 09:32:12;;;;;;;6.90;2.75;;;27.80;99.90;;;30.89;36.77;98758.53;5061227;27;130013;-71
2022/06/09 09:34:45;;;;;;;6.70;2.65;;;27.80;99.90;;;30.85;37.09;98759.94;5060985;27;130971;-73
2022/06/09 09:37:26;;;;;;;6.70;3.15;;;27.80;99.90;;;31.10;35.90;98764.44;5063513;27;118281;-71
2022/06/09 09:40:00;;;;;;;7.22;2.58;;;28.00;99.90;;;31.28;34.96;98758.03;5059842;27;120988;-75
2022/06/09 09:42:34;;;;;;;5.50;2.65;;;28.20;99.90;;;31.24;35.86;98763.78;5064384;27;130051;-73
2022/06/09 09:45:17;;;;;;;4.65;3.10;;;28.30;99.90;;;31.18;36.01;98760.84;5062345;27;128315;-72
2022/06/09 09:47:51;;;;;;;5.88;2.47;;;28.20;99.90;;;31.34;35.98;98756.16;5061846;27;119092;-73
2022/06/09 09:50:47;;;;;;;6.22;2.95;;;28.50;99.90;;;31.17;36.66;98756.50;5046009;27;117405;-73
2022/06/09 09:53:28;;;;;;;8.63;2.88;;;28.50;99.90;;;31.60;36.37;98755.75;5060589;27;130167;-71
2022/06/09 09:56:00;;;;;;;9.45;2.80;;;28.70;99.90;;;31.63;36.61;98754.81;5059544;27;129346;-72
2022/06/09 09:58:36;;;;;;;9.43;3.13;;;28.60;99.90;;;31.49;36.86;98757.03;5045914;27;118398;-72
2022/06/09 10:01:26;;;;;;;6.07;2.78;;;28.50;99.90;;;31.45;34.72;98748.00;5045753;27;119091;-71
2022/06/09 10:09:40;;;;;;;8.07;2.78;;;29.30;99.60;;;32.10;33.33;98747.75;5061243;27;119944;-73
2022/06/09 10:12:16;;;;;;;4.13;2.35;;;29.30;99.90;;;32.29;33.89;98747.59;5060934;27;118988;-76
2022/06/09 10:14:52;;;;;;;6.80;2.72;;;29.40;99.90;;;32.28;34.48;98751.66;5045825;27;129459;-77
2022/06/09 10:17:37;;;;;;;5.18;2.60;;;29.60;99.90;;;32.29;33.81;98751.19;5044741;27;128225;-71
2022/06/09 10:20:21;;;;;;;5.40;2.72;;;29.20;99.90;;;32.44;35.22;98754.03;5060849;27;119534;-74
2022/06/09 10:23:17;;;;;;;9.88;3.05;;;29.40;99.90;;;32.58;34.68;98746.91;5059459;27;119487;-72
2022/06/09 10:25:57;;;;;;;4.63;2.17;;;29.50;99.90;;;32.81;33.20;98750.94;5055152;27;129985;-75
2022/06/09 10:28:38;;;;;;;5.35;2.70;;;29.70;99.90;;;32.65;33.67;98745.81;5060701;27;129619;-74
2022/06/09 10:31:21;;;;;;;7.15;2.50;;;29.70;99.90;;;32.92;33.78;98762.38;5067288;27;119421;-72
2022/06/09 10:33:56;;;;;;;6.95;2.50;;;30.00;99.90;;;32.72;33.23;98765.06;5066530;27;119472;-73
2022/06/09 10:36:38;;;;;;;6.78;2.53;;;29.80;99.90;;;32.78;32.36;98760.34;5061028;27;129806;-74
2022/06/09 10:39:17;;;;;;;5.07;2.40;;;29.80;97.80;;;33.17;32.85;98763.06;5060427;27;129494;-72
2022/06/09 10:41:56;;;;;;;5.72;2.50;;;30.20;97.90;;;33.07;32.92;98756.00;5035103;27;117796;-72
2022/06/09 10:44:34;;;;;;;8.45;2.80;;;29.90;99.90;;;32.93;32.95;98760.34;5045083;27;118827;-74
2022/06/09 10:56:24;;;;;;;6.07;2.63;;;29.50;97.60;;;33.26;32.20;98751.75;5051995;27;118762;-73
2022/06/09 10:59:02;;;;;;;4.85;2.55;;;29.80;97.70;;;33.57;32.88;98764.53;5014388;27;129030;-74